KGRK - Killeen-Ft Hood Rgnl, TX, US

Issued at 0800 UTC 13 Aug 2022
Updated at 0932 UTC 13 Aug 2022
Potential Impact None Slight Moderate High
Time0856Z 13/10Z 13/11Z 13/12Z 13/13Z 13/14Z 13/15Z 13/16Z 13/17Z 13/18Z 13/19Z 13/20Z 13/21Z 13/22Z>>
Type OBS PRVL PRVL PRVL PRVL PRVL PRVL PRVL PRVL PRVL PRVL PRVL PRVL PRVL
VIS 10 >6 >6 >6 >6 >6 >6 >6 >6 >6 >6 >6 >6 >6
CIG -- -- -- -- -- -- -- -- -- -- -- -- -- --
Cover CLR FEW FEW FEW FEW FEW FEW FEW FEW SCT SCT SCT SCT SCT
FltCat VFR VFR VFR VFR VFR VFR VFR VFR VFR VFR VFR VFR VFR VFR
WX -- -- -- -- -- -- -- -- -- -- -- -- -- --
WDir VRB 160 160 160 160 160 160 160 160 70 70 70 70 70
WSpd 0 9 9 9 9 9 9 9 9 12 12 12 12 12
WGst -- -- -- -- -- -- -- -- -- 18 18 18 18 18
WSHgt -- -- -- -- -- -- -- -- -- -- -- -- -- --
WSDir -- -- -- -- -- -- -- -- -- -- -- -- -- --
WSSpd -- -- -- -- -- -- -- -- -- -- -- -- -- --
Raw TAF
TAF KGRK 130800Z 1308/1414 16009KT 9999 FEW045 QNH2999INS
  BECMG 1318/1319 07012G18KT 9999 SCT065 QNH2988INS
  BECMG 1323/1400 09009KT 9999 FEW065 QNH2989INS TX36/1321Z TN24/1311Z


Raw METAR
KGRK 130856Z AUTO 00000KT 10SM CLR 25/20 A2999 RMK AO2 SLP142 T02470204 58002
KGRK 130756Z AUTO 00000KT 10SM CLR 27/20 A2999 RMK AO2 SLP142 T02650201
KGRK 130656Z AUTO 00000KT 10SM CLR 27/20 A2999 RMK AO2 SLP142 T02690202

METAR Board
Radar Display
Forecast Discussion
For situational awareness. Not to be used for flight planning purposes.